createdAt,value
2022-12-18T00:01:17.475Z,32.83
2022-12-18T00:03:44.757Z,34.90
2022-12-18T00:06:12.517Z,39.03
2022-12-18T00:08:39.458Z,34.83
2022-12-18T00:11:08.022Z,34.40
2022-12-18T00:13:35.316Z,33.07
2022-12-18T00:16:06.963Z,35.03
2022-12-18T00:18:33.705Z,42.10
2022-12-18T00:21:02.423Z,38.80
2022-12-18T00:23:30.050Z,37.03
2022-12-18T00:26:00.819Z,38.13
2022-12-18T00:28:27.558Z,41.77
2022-12-18T00:31:02.815Z,40.13
2022-12-18T00:33:29.895Z,37.97
2022-12-18T00:36:05.196Z,38.70
2022-12-18T00:38:32.895Z,34.60
2022-12-18T00:40:59.345Z,35.40
2022-12-18T00:43:26.494Z,31.97
2022-12-18T00:45:53.122Z,31.43
2022-12-18T00:48:19.916Z,29.27
2022-12-18T00:50:46.453Z,29.10
2022-12-18T00:53:13.117Z,27.27
2022-12-18T00:55:43.921Z,26.77
2022-12-18T00:58:12.118Z,23.40
2022-12-18T01:00:39.301Z,25.70
2022-12-18T01:03:06.339Z,26.73
2022-12-18T01:05:33.660Z,25.83
2022-12-18T01:08:00.415Z,29.73
2022-12-18T01:10:28.145Z,30.43
2022-12-18T01:12:57.806Z,32.93
2022-12-18T01:15:24.236Z,32.73
2022-12-18T01:17:53.172Z,37.03
2022-12-18T01:20:20.051Z,35.87
2022-12-18T01:22:46.497Z,32.07
2022-12-18T01:25:12.914Z,27.83
2022-12-18T01:27:39.369Z,25.37
2022-12-18T01:30:06.373Z,23.50
2022-12-18T01:32:33.466Z,23.23
2022-12-18T01:35:00.115Z,23.33
2022-12-18T01:37:28.391Z,29.23
2022-12-18T01:39:55.737Z,28.20
2022-12-18T01:42:22.856Z,30.80
2022-12-18T01:44:57.986Z,31.03
2022-12-18T01:47:35.826Z,34.87
2022-12-18T01:50:31.708Z,29.23
2022-12-18T01:53:07.375Z,31.67
2022-12-18T01:55:45.791Z,26.90
2022-12-18T01:58:12.300Z,24.47
2022-12-18T02:00:38.878Z,26.37
2022-12-18T02:03:05.363Z,23.23
2022-12-18T02:05:46.846Z,28.33
2022-12-18T02:08:34.920Z,27.40
2022-12-18T02:11:11.774Z,24.73
2022-12-18T02:13:51.770Z,25.40
2022-12-18T02:16:34.972Z,27.43
2022-12-18T02:19:16.698Z,24.33
2022-12-18T02:21:56.867Z,24.40
2022-12-18T02:24:43.975Z,28.57
2022-12-18T02:27:11.611Z,23.67
2022-12-18T02:29:45.061Z,25.77
2022-12-18T02:32:17.676Z,20.90
2022-12-18T02:34:46.961Z,24.67
2022-12-18T02:37:18.930Z,24.57
2022-12-18T02:39:49.717Z,22.77
2022-12-18T02:42:18.506Z,22.27
2022-12-18T02:44:50.975Z,21.83
2022-12-18T02:47:23.473Z,20.60
2022-12-18T02:49:59.140Z,27.13
2022-12-18T02:52:45.754Z,25.80
2022-12-18T02:55:33.616Z,23.93
2022-12-18T02:58:13.763Z,25.63
2022-12-18T03:00:49.597Z,25.57
2022-12-18T03:03:29.294Z,23.47
2022-12-18T03:06:11.147Z,20.90
2022-12-18T03:08:42.859Z,22.90
2022-12-18T03:11:12.575Z,21.13
2022-12-18T03:13:54.804Z,25.03
2022-12-18T03:16:29.319Z,23.07
2022-12-18T03:19:01.082Z,23.97
2022-12-18T03:21:35.692Z,24.93
2022-12-18T03:24:06.855Z,22.83
2022-12-18T03:26:38.449Z,25.77
2022-12-18T03:29:14.005Z,30.40
2022-12-18T03:31:44.176Z,24.00
2022-12-18T03:34:16.226Z,24.73
2022-12-18T03:36:46.230Z,21.80
2022-12-18T03:39:15.156Z,20.27
2022-12-18T03:42:02.721Z,25.60
2022-12-18T03:44:38.101Z,21.70
2022-12-18T03:47:15.589Z,22.33
2022-12-18T03:49:48.954Z,19.07
2022-12-18T03:52:35.874Z,21.00
2022-12-18T03:55:04.207Z,20.60
2022-12-18T03:57:33.406Z,23.70
2022-12-18T04:00:07.819Z,18.17
2022-12-18T04:02:55.159Z,21.93
2022-12-18T04:05:30.706Z,22.07
2022-12-18T04:07:58.619Z,18.60
2022-12-18T04:10:25.330Z,21.53
2022-12-18T04:12:51.882Z,16.33
2022-12-18T04:15:19.445Z,17.07
2022-12-18T04:17:50.551Z,15.27
2022-12-18T04:20:20.766Z,18.20
2022-12-18T04:22:48.119Z,16.80
2022-12-18T04:25:14.995Z,19.93
2022-12-18T04:27:53.558Z,18.77
2022-12-18T04:30:19.999Z,19.30
2022-12-18T04:32:52.042Z,17.03
2022-12-18T04:35:19.726Z,17.13
2022-12-18T04:37:46.892Z,19.73
2022-12-18T04:40:13.457Z,19.83
2022-12-18T04:42:43.464Z,19.17
2022-12-18T04:45:10.260Z,20.90
2022-12-18T04:47:36.765Z,21.03
2022-12-18T04:50:03.567Z,17.43
2022-12-18T04:52:30.208Z,17.93
2022-12-18T04:54:56.648Z,17.73
2022-12-18T04:57:23.124Z,15.27
2022-12-18T04:59:49.637Z,14.93
2022-12-18T05:02:16.241Z,18.00
2022-12-18T05:04:42.735Z,17.53
2022-12-18T05:07:09.141Z,17.67
2022-12-18T05:09:36.248Z,16.97
2022-12-18T05:12:02.893Z,17.13
2022-12-18T05:14:30.300Z,18.80
2022-12-18T05:17:00.637Z,15.73
2022-12-18T05:19:27.723Z,16.67
2022-12-18T05:21:54.116Z,15.00
2022-12-18T05:24:20.745Z,15.30
2022-12-18T05:26:47.434Z,16.43
2022-12-18T05:29:14.144Z,14.50
2022-12-18T05:31:40.950Z,15.90
2022-12-18T05:34:09.460Z,17.03
2022-12-18T05:36:37.141Z,17.97
2022-12-18T05:39:04.086Z,15.27
2022-12-18T05:41:30.887Z,15.83
2022-12-18T05:43:57.660Z,14.93
2022-12-18T05:46:25.243Z,19.73
2022-12-18T05:48:52.029Z,17.53
2022-12-18T05:51:22.002Z,16.80
2022-12-18T05:53:49.129Z,17.07
2022-12-18T05:56:21.445Z,18.60
2022-12-18T05:58:48.313Z,14.67
2022-12-18T06:01:20.086Z,16.43
2022-12-18T06:03:47.262Z,18.60
2022-12-18T06:06:19.877Z,17.33
2022-12-18T06:08:47.265Z,16.87
2022-12-18T06:11:14.392Z,20.00
2022-12-18T06:13:41.226Z,18.97
2022-12-18T06:16:09.105Z,18.27
2022-12-18T06:18:35.680Z,17.70
2022-12-18T06:21:04.291Z,17.43
2022-12-18T06:23:30.965Z,18.00
2022-12-18T06:25:57.718Z,16.27
2022-12-18T06:28:24.206Z,14.93
2022-12-18T06:30:51.323Z,19.40
2022-12-18T06:33:18.251Z,15.90
2022-12-18T06:35:44.860Z,16.33
2022-12-18T06:38:11.321Z,15.93
2022-12-18T06:40:39.455Z,15.00
2022-12-18T06:43:06.833Z,18.47
2022-12-18T06:45:33.281Z,14.53
2022-12-18T06:47:59.799Z,14.67
2022-12-18T06:50:26.438Z,16.90
2022-12-18T06:52:52.966Z,18.07
2022-12-18T06:55:19.657Z,15.97
2022-12-18T06:57:46.101Z,17.13
2022-12-18T07:00:12.949Z,17.80
2022-12-18T07:02:39.504Z,17.10
2022-12-18T07:05:10.647Z,16.07
2022-12-18T07:07:37.775Z,18.07
2022-12-18T07:10:04.833Z,17.30
2022-12-18T07:12:31.326Z,15.97
2022-12-18T07:14:57.900Z,18.17
2022-12-18T07:17:24.348Z,15.07
2022-12-18T07:19:50.910Z,15.20
2022-12-18T07:22:17.535Z,16.57
2022-12-18T07:24:44.188Z,16.33
2022-12-18T07:27:10.641Z,18.03
2022-12-18T07:29:37.101Z,15.67
2022-12-18T07:32:04.729Z,17.63
2022-12-18T07:34:31.211Z,18.63
2022-12-18T07:36:58.835Z,18.10
2022-12-18T07:39:25.392Z,14.93
2022-12-18T07:42:10.627Z,19.53
2022-12-18T07:44:40.192Z,18.63
2022-12-18T07:47:11.768Z,18.83
2022-12-18T07:49:38.951Z,19.00
2022-12-18T07:52:05.514Z,20.80
2022-12-18T07:54:32.039Z,17.87
2022-12-18T07:56:58.558Z,17.50
2022-12-18T07:59:25.012Z,20.60
2022-12-18T08:01:51.672Z,19.33
2022-12-18T08:04:18.666Z,20.27
2022-12-18T08:06:47.905Z,17.43
2022-12-18T08:09:15.021Z,17.70
2022-12-18T08:11:41.440Z,18.80
2022-12-18T08:14:07.924Z,17.67
2022-12-18T08:16:34.588Z,21.13
2022-12-18T08:19:01.903Z,17.40
2022-12-18T08:21:31.328Z,18.33
2022-12-18T08:24:00.791Z,19.53
2022-12-18T08:26:30.741Z,18.07
2022-12-18T08:28:58.973Z,17.30
2022-12-18T08:31:27.975Z,18.30
2022-12-18T08:33:55.554Z,19.83
2022-12-18T08:36:22.967Z,20.43
2022-12-18T08:38:49.745Z,18.27
2022-12-18T08:41:18.145Z,20.23
2022-12-18T08:44:03.819Z,18.87
2022-12-18T08:46:38.824Z,18.60
2022-12-18T08:49:07.348Z,18.97
2022-12-18T08:51:34.720Z,19.97
2022-12-18T08:54:02.012Z,18.70
2022-12-18T08:56:30.827Z,16.47
2022-12-18T08:58:57.859Z,19.77
2022-12-18T09:01:25.249Z,17.87
2022-12-18T09:03:52.265Z,19.60
2022-12-18T09:06:20.653Z,21.27
2022-12-18T09:08:47.954Z,20.07
2022-12-18T09:11:19.658Z,17.93
2022-12-18T09:13:46.159Z,18.03
2022-12-18T09:16:12.675Z,20.70
2022-12-18T09:18:39.533Z,14.57
2022-12-18T09:21:17.465Z,15.23
2022-12-18T09:23:44.507Z,14.73
2022-12-18T09:26:11.171Z,13.30
2022-12-18T09:28:37.984Z,14.03
2022-12-18T09:31:08.478Z,15.47
2022-12-18T09:33:38.296Z,14.17
2022-12-18T09:36:07.538Z,13.43
2022-12-18T09:38:34.869Z,15.67
2022-12-18T09:41:17.864Z,14.07
2022-12-18T09:43:52.359Z,14.40
2022-12-18T09:46:30.333Z,11.60
2022-12-18T09:49:02.149Z,14.83
2022-12-18T09:51:33.894Z,12.77
2022-12-18T09:54:05.551Z,12.93
2022-12-18T09:56:37.954Z,15.17
2022-12-18T09:59:05.580Z,16.73
2022-12-18T10:01:41.754Z,13.37
2022-12-18T10:04:11.091Z,13.20
2022-12-18T10:06:58.160Z,13.47
2022-12-18T10:09:58.377Z,13.67
2022-12-18T10:12:44.368Z,15.20
2022-12-18T10:15:32.917Z,13.80
2022-12-18T10:18:17.396Z,16.03
2022-12-18T10:20:53.233Z,14.90
2022-12-18T10:23:28.061Z,17.33
2022-12-18T10:26:05.016Z,16.33
2022-12-18T10:28:34.107Z,15.47
2022-12-18T10:31:00.894Z,17.20
2022-12-18T10:33:33.755Z,17.07
2022-12-18T10:36:02.536Z,13.27
2022-12-18T10:38:31.436Z,15.50
2022-12-18T10:41:00.679Z,14.90
2022-12-18T10:43:33.235Z,13.73
2022-12-18T10:46:12.782Z,16.43
2022-12-18T10:48:50.081Z,12.37
2022-12-18T10:51:38.214Z,15.07
2022-12-18T10:54:07.640Z,14.07
2022-12-18T10:56:37.900Z,11.93
2022-12-18T10:59:09.566Z,11.97
2022-12-18T11:01:58.355Z,10.40
2022-12-18T11:04:30.763Z,12.30
2022-12-18T11:07:05.456Z,12.03
2022-12-18T11:09:34.936Z,9.87
2022-12-18T11:12:16.974Z,8.67
2022-12-18T11:14:48.305Z,9.93
2022-12-18T11:17:34.412Z,8.70
2022-12-18T11:20:04.252Z,9.97
2022-12-18T11:22:34.276Z,11.97
2022-12-18T11:25:32.654Z,11.00
2022-12-18T11:28:02.579Z,11.73
2022-12-18T11:30:34.862Z,9.43
2022-12-18T11:33:04.764Z,12.77
2022-12-18T11:35:48.615Z,9.13
2022-12-18T11:38:21.022Z,8.97
2022-12-18T11:40:54.200Z,9.73
2022-12-18T11:43:30.868Z,10.30
2022-12-18T11:46:05.384Z,8.97
2022-12-18T11:48:39.094Z,11.93
2022-12-18T11:51:14.441Z,11.83
2022-12-18T11:53:40.972Z,10.97
2022-12-18T11:56:42.517Z,12.33
2022-12-18T11:59:34.127Z,9.20
2022-12-18T12:02:20.832Z,11.47
2022-12-18T12:05:18.071Z,9.00
2022-12-18T12:08:01.999Z,12.27
2022-12-18T12:10:37.782Z,11.83
2022-12-18T12:13:31.690Z,9.07
2022-12-18T12:16:19.935Z,9.87
2022-12-18T12:19:00.904Z,9.77
2022-12-18T12:21:35.528Z,9.50
2022-12-18T12:24:05.002Z,9.03
2022-12-18T12:26:44.636Z,8.10
2022-12-18T12:29:33.682Z,8.20
2022-12-18T12:32:14.048Z,8.57
2022-12-18T12:35:01.011Z,9.67
2022-12-18T12:37:46.312Z,7.93
2022-12-18T12:40:50.225Z,7.10
2022-12-18T12:43:21.239Z,10.43
2022-12-18T12:45:55.802Z,13.63
2022-12-18T12:48:48.841Z,9.60
2022-12-18T12:51:33.130Z,8.43
2022-12-18T12:54:01.100Z,6.73
2022-12-18T12:56:59.854Z,8.20
2022-12-18T12:59:32.008Z,9.73
2022-12-18T13:02:09.963Z,6.97
2022-12-18T13:04:47.760Z,9.80
2022-12-18T13:07:28.847Z,7.30
2022-12-18T13:10:25.637Z,9.43
2022-12-18T13:12:57.313Z,7.03
2022-12-18T13:15:44.190Z,6.60
2022-12-18T13:18:10.660Z,7.60
2022-12-18T13:20:52.488Z,9.27
2022-12-18T13:23:51.435Z,7.33
2022-12-18T13:45:39.713Z,8.70
2022-12-18T13:48:17.382Z,7.23
2022-12-18T13:50:48.910Z,8.77
2022-12-18T13:53:30.555Z,8.23
2022-12-18T13:55:58.278Z,7.70
2022-12-18T13:58:24.744Z,6.03
2022-12-18T14:00:51.182Z,8.63
2022-12-18T14:03:22.487Z,7.40
2022-12-18T14:06:08.647Z,4.60
2022-12-18T14:08:40.673Z,8.03
2022-12-18T14:11:11.762Z,7.30
2022-12-18T14:13:42.215Z,8.13
2022-12-18T14:16:15.118Z,6.90
2022-12-18T14:19:08.637Z,6.87
2022-12-18T14:21:47.490Z,8.13
2022-12-18T14:24:21.012Z,8.40
2022-12-18T14:26:50.536Z,6.90
2022-12-18T14:29:21.563Z,8.37
2022-12-18T14:32:06.961Z,11.37
2022-12-18T14:34:34.832Z,7.70
2022-12-18T14:37:01.319Z,5.67
2022-12-18T14:39:28.030Z,8.47
2022-12-18T14:41:54.678Z,8.77
2022-12-18T14:44:22.367Z,9.07
2022-12-18T14:46:51.523Z,9.63
2022-12-18T14:49:30.707Z,8.80
2022-12-18T14:52:02.410Z,9.97
2022-12-18T14:54:30.726Z,9.63
2022-12-18T14:57:22.211Z,8.60
2022-12-18T14:59:48.783Z,9.00
2022-12-18T15:02:20.025Z,10.27
2022-12-18T15:04:47.049Z,11.67
2022-12-18T15:07:24.652Z,15.17
2022-12-18T15:10:09.868Z,11.30
2022-12-18T15:12:44.995Z,13.60
2022-12-18T15:15:43.291Z,13.07
2022-12-18T15:18:09.720Z,10.60
2022-12-18T15:21:10.088Z,11.87
2022-12-18T15:23:44.796Z,15.10
2022-12-18T15:26:15.414Z,14.20
2022-12-18T15:28:56.510Z,12.60
2022-12-18T15:31:35.956Z,13.70
2022-12-18T15:34:08.433Z,12.90
2022-12-18T15:36:37.349Z,17.33
2022-12-18T15:39:06.557Z,17.67
2022-12-18T15:41:36.082Z,12.70
2022-12-18T15:44:04.080Z,14.63
2022-12-18T15:46:31.799Z,13.43
2022-12-18T15:49:02.177Z,14.13
2022-12-18T15:51:34.760Z,14.77
2022-12-18T15:54:07.227Z,14.87
2022-12-18T15:56:52.523Z,14.23
2022-12-18T15:59:21.317Z,13.47
2022-12-18T16:01:50.242Z,12.30
2022-12-18T16:04:21.198Z,13.03
2022-12-18T16:07:13.839Z,15.57
2022-12-18T16:09:35.481Z,14.77
2022-12-18T16:12:03.399Z,14.23
2022-12-18T16:14:31.175Z,11.80
2022-12-18T16:17:03.293Z,11.90
2022-12-18T16:19:30.640Z,12.63
2022-12-18T16:21:59.794Z,14.57
2022-12-18T16:24:29.384Z,12.80
2022-12-18T16:26:59.720Z,14.77
2022-12-18T16:29:28.604Z,11.77
2022-12-18T16:31:57.208Z,12.80
2022-12-18T16:34:29.701Z,9.87
2022-12-18T16:37:05.513Z,15.00
2022-12-18T16:39:34.822Z,14.00
2022-12-18T16:42:06.030Z,12.87
2022-12-18T16:44:34.394Z,12.90
2022-12-18T16:47:02.888Z,14.20
2022-12-18T16:49:30.191Z,12.50
2022-12-18T16:51:56.914Z,9.60
2022-12-18T16:54:23.901Z,11.93
2022-12-18T16:56:52.069Z,12.90
2022-12-18T16:59:18.988Z,11.17
2022-12-18T17:01:47.114Z,11.07
2022-12-18T17:04:14.616Z,11.10
2022-12-18T17:06:43.478Z,10.53
2022-12-18T17:09:17.889Z,11.27
2022-12-18T17:11:44.451Z,8.40
2022-12-18T17:14:14.908Z,11.53
2022-12-18T17:16:41.613Z,10.00
2022-12-18T17:19:15.179Z,11.37
2022-12-18T17:21:45.135Z,12.93
2022-12-18T17:24:11.891Z,11.97
2022-12-18T17:26:38.336Z,9.97
2022-12-18T17:29:05.268Z,11.43
2022-12-18T17:31:32.453Z,10.27
2022-12-18T17:33:59.424Z,12.87
2022-12-18T17:36:28.976Z,11.23
2022-12-18T17:38:57.407Z,11.30
2022-12-18T17:41:24.825Z,10.53
2022-12-18T17:44:03.542Z,11.47
2022-12-18T17:46:32.179Z,10.20
2022-12-18T17:49:00.386Z,8.93
2022-12-18T17:51:27.469Z,9.97
2022-12-18T17:53:54.211Z,11.03
2022-12-18T17:56:22.686Z,11.30
2022-12-18T17:58:50.336Z,11.47
2022-12-18T18:01:21.046Z,12.03
2022-12-18T18:03:49.195Z,11.30
2022-12-18T18:06:21.036Z,9.90
2022-12-18T18:08:47.993Z,10.80
2022-12-18T18:11:36.363Z,10.57
2022-12-18T18:14:06.303Z,9.97
2022-12-18T18:16:36.867Z,9.57
2022-12-18T18:19:06.749Z,9.50
2022-12-18T18:21:34.168Z,11.53
2022-12-18T18:24:03.086Z,10.27
2022-12-18T18:26:35.015Z,12.73
2022-12-18T18:29:03.959Z,9.83
2022-12-18T18:31:35.280Z,10.50
2022-12-18T18:34:07.213Z,11.50
2022-12-18T18:36:34.661Z,12.47
2022-12-18T18:39:03.666Z,12.13
2022-12-18T18:41:30.653Z,13.67
2022-12-18T18:43:58.443Z,13.23
2022-12-18T18:46:25.130Z,10.40
2022-12-18T18:48:51.712Z,11.47
2022-12-18T18:51:21.090Z,11.37
2022-12-18T18:53:49.643Z,14.07
2022-12-18T18:56:45.404Z,11.00
2022-12-18T18:59:05.815Z,13.63
2022-12-18T19:01:32.932Z,13.53
2022-12-18T19:04:00.616Z,15.07
2022-12-18T19:06:28.583Z,15.90
2022-12-18T19:08:57.259Z,14.67
2022-12-18T19:11:44.548Z,13.80
2022-12-18T19:14:14.672Z,13.57
2022-12-18T19:16:41.729Z,11.63
2022-12-18T19:19:09.253Z,16.40
2022-12-18T19:21:37.579Z,12.90
2022-12-18T19:24:05.060Z,15.63
2022-12-18T19:26:31.632Z,14.13
2022-12-18T19:29:05.720Z,15.07
2022-12-18T19:31:36.521Z,13.63
2022-12-18T19:34:05.239Z,12.37
2022-12-18T19:36:33.828Z,15.03
2022-12-18T19:39:02.659Z,12.77
2022-12-18T19:41:31.329Z,15.13
2022-12-18T19:43:59.657Z,16.40
2022-12-18T19:46:26.318Z,13.67
2022-12-18T19:48:52.871Z,13.40
2022-12-18T19:51:25.045Z,12.87
2022-12-18T19:53:58.180Z,12.57
2022-12-18T19:56:28.800Z,12.40
2022-12-18T19:58:55.492Z,14.07
2022-12-18T20:01:24.030Z,15.90
2022-12-18T20:03:51.710Z,18.07
2022-12-18T20:06:29.586Z,13.63
2022-12-18T20:09:00.325Z,14.47
2022-12-18T20:11:30.683Z,15.30
2022-12-18T20:13:57.706Z,13.73
2022-12-18T20:16:27.637Z,14.47
2022-12-18T20:18:55.301Z,17.00
2022-12-18T20:21:22.955Z,13.57
2022-12-18T20:23:50.293Z,17.60
2022-12-18T20:26:16.818Z,17.23
2022-12-18T20:28:43.287Z,16.10
2022-12-18T20:31:13.808Z,14.07
2022-12-18T20:33:42.248Z,16.53
2022-12-18T20:36:14.452Z,14.20
2022-12-18T20:38:42.400Z,17.07
2022-12-18T20:41:16.530Z,13.17
2022-12-18T20:43:44.323Z,14.17
2022-12-18T20:46:13.508Z,13.80
2022-12-18T20:48:40.345Z,14.57
2022-12-18T20:51:12.574Z,15.27
2022-12-18T20:53:40.262Z,15.93
2022-12-18T20:56:21.032Z,16.53
2022-12-18T20:58:51.774Z,14.97
2022-12-18T21:01:23.506Z,18.97
2022-12-18T21:03:50.819Z,18.53
2022-12-18T21:06:19.349Z,15.23
2022-12-18T21:08:46.722Z,16.17
2022-12-18T21:11:37.880Z,17.07
2022-12-18T21:14:11.654Z,14.87
2022-12-18T21:16:40.058Z,15.23
2022-12-18T21:19:07.243Z,17.20
2022-12-18T21:21:38.405Z,15.23
2022-12-18T21:24:06.090Z,15.07
2022-12-18T21:26:33.044Z,14.97
2022-12-18T21:29:02.621Z,17.00
2022-12-18T21:31:32.213Z,15.83
2022-12-18T21:34:02.044Z,15.67
2022-12-18T21:36:29.436Z,16.83
2022-12-18T21:38:56.815Z,20.40
2022-12-18T21:41:56.175Z,17.13
2022-12-18T21:44:23.742Z,16.40
2022-12-18T21:46:56.157Z,17.37
2022-12-18T21:49:26.449Z,15.90
2022-12-18T21:51:55.345Z,17.60
2022-12-18T21:54:22.645Z,20.10
2022-12-18T21:56:49.084Z,19.27
2022-12-18T21:59:18.501Z,20.47
2022-12-18T22:01:45.780Z,20.53
2022-12-18T22:04:12.929Z,16.53
2022-12-18T22:06:39.935Z,19.67
2022-12-18T22:09:06.761Z,19.73
2022-12-18T22:11:33.238Z,19.90
2022-12-18T22:13:59.868Z,17.43
2022-12-18T22:16:26.426Z,20.43
2022-12-18T22:18:52.973Z,17.47
2022-12-18T22:21:31.371Z,18.07
2022-12-18T22:24:06.398Z,17.77
2022-12-18T22:26:39.843Z,17.13
2022-12-18T22:29:25.940Z,17.17
2022-12-18T22:31:52.528Z,17.97
2022-12-18T22:34:22.761Z,20.73
2022-12-18T22:36:50.455Z,21.73
2022-12-18T22:39:18.280Z,19.97
2022-12-18T22:41:45.047Z,17.73
2022-12-18T22:44:11.511Z,22.30
2022-12-18T22:46:49.412Z,21.10
2022-12-18T22:49:24.507Z,21.17
2022-12-18T22:51:51.903Z,20.80
2022-12-18T22:54:18.484Z,21.67
2022-12-18T22:56:45.069Z,21.23
2022-12-18T22:59:17.464Z,17.57
2022-12-18T23:01:45.335Z,23.37
2022-12-18T23:04:14.182Z,19.87
2022-12-18T23:06:42.033Z,22.07
2022-12-18T23:09:20.177Z,19.53
2022-12-18T23:11:47.380Z,24.73
2022-12-18T23:14:14.684Z,21.93
2022-12-18T23:16:41.146Z,21.47
2022-12-18T23:19:08.936Z,21.27
2022-12-18T23:21:35.410Z,18.37
2022-12-18T23:24:02.183Z,24.17
2022-12-18T23:26:29.264Z,20.40
2022-12-18T23:28:56.723Z,20.83
2022-12-18T23:31:26.399Z,20.80
2022-12-18T23:33:55.222Z,24.33
2022-12-18T23:36:22.718Z,21.77
2022-12-18T23:38:51.008Z,22.17
2022-12-18T23:41:19.247Z,20.50
2022-12-18T23:43:46.271Z,22.00
2022-12-18T23:46:34.651Z,21.77
2022-12-18T23:49:02.906Z,21.37
2022-12-18T23:51:32.483Z,22.40
2022-12-18T23:54:02.030Z,23.97
2022-12-18T23:56:30.259Z,22.17
2022-12-18T23:58:57.184Z,24.03
